< < Back
Terminal Aerodrome Forecast


Current Version              Previous Versions:   1  2  3  4  5  6  7  8  9  

Terminal Aerodrome Forecast

387
FTUS42 KILM 021133
TAFFLO
TAF
KFLO 021133Z 0212/0312 24005KT P6SM SCT050 SCT250
     FM030900 VRB03KT 4SM BR SCT250=



Latest METAR

061
SAUS70 KWBC 022100
MTRFLO
METAR KFLO 022053Z AUTO 18005KT 10SM CLR 33/19 A2998 RMK AO2 SLP148
T03330189 56023


USA.gov is the U.S. government's official web portal to all federal, state and local government web resources and services.